sensor_id;sensor_type;location;lat;lon;timestamp;temperature;humidity
40952;DHT22;26682;51.660;19.338;2023-04-15T00:02:18;10.20;99.90
40952;DHT22;26682;51.660;19.338;2023-04-15T00:05:04;10.20;99.90
40952;DHT22;26682;51.660;19.338;2023-04-15T00:07:47;10.20;99.90
40952;DHT22;26682;51.660;19.338;2023-04-15T00:10:34;10.20;99.90
40952;DHT22;26682;51.660;19.338;2023-04-15T00:13:16;10.20;99.90
40952;DHT22;26682;51.660;19.338;2023-04-15T00:16:00;10.20;1.00
40952;DHT22;26682;51.660;19.338;2023-04-15T00:18:42;10.10;99.90
40952;DHT22;26682;51.660;19.338;2023-04-15T00:21:25;10.10;99.90
40952;DHT22;26682;51.660;19.338;2023-04-15T00:24:09;10.10;99.90
40952;DHT22;26682;51.660;19.338;2023-04-15T00:26:52;10.00;1.00
40952;DHT22;26682;51.660;19.338;2023-04-15T00:29:35;9.90;1.00
40952;DHT22;26682;51.660;19.338;2023-04-15T00:32:18;9.90;1.00
40952;DHT22;26682;51.660;19.338;2023-04-15T00:35:01;10.00;1.00
40952;DHT22;26682;51.660;19.338;2023-04-15T00:37:44;10.00;1.00
40952;DHT22;26682;51.660;19.338;2023-04-15T00:40:27;10.00;1.00
40952;DHT22;26682;51.660;19.338;2023-04-15T00:43:09;10.00;99.90
40952;DHT22;26682;51.660;19.338;2023-04-15T00:45:53;10.00;99.90
40952;DHT22;26682;51.660;19.338;2023-04-15T00:48:38;10.10;99.90
40952;DHT22;26682;51.660;19.338;2023-04-15T00:51:21;10.00;99.90
40952;DHT22;26682;51.660;19.338;2023-04-15T00:54:05;10.10;99.90
40952;DHT22;26682;51.660;19.338;2023-04-15T00:56:48;10.10;99.90
40952;DHT22;26682;51.660;19.338;2023-04-15T00:59:32;10.10;84.00
40952;DHT22;26682;51.660;19.338;2023-04-15T01:02:15;10.10;94.80
40952;DHT22;26682;51.660;19.338;2023-04-15T01:04:58;10.00;99.90
40952;DHT22;26682;51.660;19.338;2023-04-15T01:07:40;10.10;39.00
40952;DHT22;26682;51.660;19.338;2023-04-15T01:10:22;10.10;8.50
40952;DHT22;26682;51.660;19.338;2023-04-15T01:13:05;10.00;99.90
40952;DHT22;26682;51.660;19.338;2023-04-15T01:15:48;10.10;99.90
40952;DHT22;26682;51.660;19.338;2023-04-15T01:18:30;10.10;99.90
40952;DHT22;26682;51.660;19.338;2023-04-15T01:21:13;10.00;99.90
40952;DHT22;26682;51.660;19.338;2023-04-15T01:23:56;10.00;99.90
40952;DHT22;26682;51.660;19.338;2023-04-15T01:26:40;10.00;1.00
40952;DHT22;26682;51.660;19.338;2023-04-15T01:29:24;10.00;1.00
40952;DHT22;26682;51.660;19.338;2023-04-15T01:32:06;10.00;11.90
40952;DHT22;26682;51.660;19.338;2023-04-15T01:34:49;10.00;92.40
40952;DHT22;26682;51.660;19.338;2023-04-15T01:37:31;9.90;99.90
40952;DHT22;26682;51.660;19.338;2023-04-15T01:40:13;9.90;99.90
40952;DHT22;26682;51.660;19.338;2023-04-15T01:42:56;10.00;99.90
40952;DHT22;26682;51.660;19.338;2023-04-15T01:45:38;9.90;99.90
40952;DHT22;26682;51.660;19.338;2023-04-15T01:48:21;9.90;99.90
40952;DHT22;26682;51.660;19.338;2023-04-15T01:51:04;9.90;99.90
40952;DHT22;26682;51.660;19.338;2023-04-15T01:53:47;10.00;99.90
40952;DHT22;26682;51.660;19.338;2023-04-15T01:56:30;9.90;99.90
40952;DHT22;26682;51.660;19.338;2023-04-15T01:59:12;9.90;99.90
40952;DHT22;26682;51.660;19.338;2023-04-15T02:01:56;9.90;1.00
40952;DHT22;26682;51.660;19.338;2023-04-15T02:04:38;9.90;1.00
40952;DHT22;26682;51.660;19.338;2023-04-15T02:07:20;9.90;1.00
40952;DHT22;26682;51.660;19.338;2023-04-15T02:10:03;9.80;54.30
40952;DHT22;26682;51.660;19.338;2023-04-15T02:12:49;9.80;99.90
40952;DHT22;26682;51.660;19.338;2023-04-15T02:15:32;9.80;99.90
40952;DHT22;26682;51.660;19.338;2023-04-15T02:18:15;9.80;99.90
40952;DHT22;26682;51.660;19.338;2023-04-15T02:20:58;9.70;99.90
40952;DHT22;26682;51.660;19.338;2023-04-15T02:23:40;9.70;99.90
40952;DHT22;26682;51.660;19.338;2023-04-15T02:26:23;9.70;99.90
40952;DHT22;26682;51.660;19.338;2023-04-15T02:29:08;9.70;99.90
40952;DHT22;26682;51.660;19.338;2023-04-15T02:31:50;9.60;99.90
40952;DHT22;26682;51.660;19.338;2023-04-15T02:34:34;9.60;99.90
40952;DHT22;26682;51.660;19.338;2023-04-15T02:37:17;9.60;1.00
40952;DHT22;26682;51.660;19.338;2023-04-15T02:40:01;9.60;1.00
40952;DHT22;26682;51.660;19.338;2023-04-15T02:42:44;9.60;1.00
40952;DHT22;26682;51.660;19.338;2023-04-15T02:45:29;9.60;1.00
40952;DHT22;26682;51.660;19.338;2023-04-15T02:48:16;9.50;1.00
40952;DHT22;26682;51.660;19.338;2023-04-15T02:51:12;9.50;1.00
40952;DHT22;26682;51.660;19.338;2023-04-15T02:53:55;9.40;1.00
40952;DHT22;26682;51.660;19.338;2023-04-15T02:56:37;9.40;1.00
40952;DHT22;26682;51.660;19.338;2023-04-15T02:59:20;9.50;1.00
40952;DHT22;26682;51.660;19.338;2023-04-15T03:02:02;9.50;1.00
40952;DHT22;26682;51.660;19.338;2023-04-15T03:04:45;9.40;31.50
40952;DHT22;26682;51.660;19.338;2023-04-15T03:07:27;9.40;99.90
40952;DHT22;26682;51.660;19.338;2023-04-15T03:10:10;9.40;53.80
40952;DHT22;26682;51.660;19.338;2023-04-15T03:12:52;9.40;54.60
40952;DHT22;26682;51.660;19.338;2023-04-15T03:15:37;9.40;82.70
40952;DHT22;26682;51.660;19.338;2023-04-15T03:18:19;9.40;99.90
40952;DHT22;26682;51.660;19.338;2023-04-15T03:21:03;9.40;99.90
40952;DHT22;26682;51.660;19.338;2023-04-15T03:23:48;9.40;99.90
40952;DHT22;26682;51.660;19.338;2023-04-15T03:26:32;9.40;99.90
40952;DHT22;26682;51.660;19.338;2023-04-15T03:29:19;9.30;99.90
40952;DHT22;26682;51.660;19.338;2023-04-15T03:32:02;9.40;99.90
40952;DHT22;26682;51.660;19.338;2023-04-15T03:34:48;9.40;99.90
40952;DHT22;26682;51.660;19.338;2023-04-15T03:37:31;9.40;99.90
40952;DHT22;26682;51.660;19.338;2023-04-15T03:40:13;9.30;99.90
40952;DHT22;26682;51.660;19.338;2023-04-15T03:42:55;9.40;99.90
40952;DHT22;26682;51.660;19.338;2023-04-15T03:45:38;9.30;99.90
40952;DHT22;26682;51.660;19.338;2023-04-15T03:48:20;9.40;99.90
40952;DHT22;26682;51.660;19.338;2023-04-15T03:51:02;9.30;99.90
40952;DHT22;26682;51.660;19.338;2023-04-15T03:53:45;9.30;99.90
40952;DHT22;26682;51.660;19.338;2023-04-15T03:56:27;9.40;99.90
40952;DHT22;26682;51.660;19.338;2023-04-15T03:59:09;9.30;99.90
40952;DHT22;26682;51.660;19.338;2023-04-15T04:01:52;9.30;99.90
40952;DHT22;26682;51.660;19.338;2023-04-15T04:04:34;9.30;99.90
40952;DHT22;26682;51.660;19.338;2023-04-15T04:07:17;9.30;99.90
40952;DHT22;26682;51.660;19.338;2023-04-15T04:10:00;9.30;99.90
40952;DHT22;26682;51.660;19.338;2023-04-15T04:12:42;9.30;99.90
40952;DHT22;26682;51.660;19.338;2023-04-15T04:15:25;9.30;99.90
40952;DHT22;26682;51.660;19.338;2023-04-15T04:18:07;9.30;99.90
40952;DHT22;26682;51.660;19.338;2023-04-15T04:20:49;9.30;99.90
40952;DHT22;26682;51.660;19.338;2023-04-15T04:23:32;9.20;99.90
40952;DHT22;26682;51.660;19.338;2023-04-15T04:26:14;9.20;99.90
40952;DHT22;26682;51.660;19.338;2023-04-15T04:28:57;9.20;99.90
40952;DHT22;26682;51.660;19.338;2023-04-15T04:31:40;9.20;99.90
40952;DHT22;26682;51.660;19.338;2023-04-15T04:34:22;9.20;99.90
40952;DHT22;26682;51.660;19.338;2023-04-15T04:37:05;9.20;99.90
40952;DHT22;26682;51.660;19.338;2023-04-15T04:39:48;9.20;99.90
40952;DHT22;26682;51.660;19.338;2023-04-15T04:42:30;9.20;99.90
40952;DHT22;26682;51.660;19.338;2023-04-15T04:45:12;9.20;99.90
40952;DHT22;26682;51.660;19.338;2023-04-15T04:47:55;9.20;99.90
40952;DHT22;26682;51.660;19.338;2023-04-15T04:50:37;9.20;99.90
40952;DHT22;26682;51.660;19.338;2023-04-15T04:53:20;9.20;99.90
40952;DHT22;26682;51.660;19.338;2023-04-15T04:56:03;9.20;99.90
40952;DHT22;26682;51.660;19.338;2023-04-15T04:58:45;9.20;99.90
40952;DHT22;26682;51.660;19.338;2023-04-15T05:01:28;9.20;99.90
40952;DHT22;26682;51.660;19.338;2023-04-15T05:04:11;9.20;99.90
40952;DHT22;26682;51.660;19.338;2023-04-15T05:06:53;9.10;99.90
40952;DHT22;26682;51.660;19.338;2023-04-15T05:09:38;9.10;99.90
40952;DHT22;26682;51.660;19.338;2023-04-15T05:12:21;9.20;99.90
40952;DHT22;26682;51.660;19.338;2023-04-15T05:15:05;9.20;99.90
40952;DHT22;26682;51.660;19.338;2023-04-15T05:17:47;9.20;99.90
40952;DHT22;26682;51.660;19.338;2023-04-15T05:20:30;9.30;99.90
40952;DHT22;26682;51.660;19.338;2023-04-15T05:23:12;9.30;99.90
40952;DHT22;26682;51.660;19.338;2023-04-15T05:25:54;9.20;99.90
40952;DHT22;26682;51.660;19.338;2023-04-15T05:28:37;9.30;99.90
40952;DHT22;26682;51.660;19.338;2023-04-15T05:31:20;9.40;99.90
40952;DHT22;26682;51.660;19.338;2023-04-15T05:34:02;9.40;99.90
40952;DHT22;26682;51.660;19.338;2023-04-15T05:36:45;9.40;99.90
40952;DHT22;26682;51.660;19.338;2023-04-15T05:39:27;9.40;99.90
40952;DHT22;26682;51.660;19.338;2023-04-15T05:42:10;9.40;99.90
40952;DHT22;26682;51.660;19.338;2023-04-15T05:44:52;9.40;99.90
40952;DHT22;26682;51.660;19.338;2023-04-15T05:47:35;9.50;99.90
40952;DHT22;26682;51.660;19.338;2023-04-15T05:50:18;9.60;99.90
40952;DHT22;26682;51.660;19.338;2023-04-15T05:53:02;9.60;99.90
40952;DHT22;26682;51.660;19.338;2023-04-15T05:55:44;9.60;99.90
40952;DHT22;26682;51.660;19.338;2023-04-15T05:58:27;9.60;99.90
40952;DHT22;26682;51.660;19.338;2023-04-15T06:01:09;9.60;99.90
40952;DHT22;26682;51.660;19.338;2023-04-15T06:03:52;9.60;99.90
40952;DHT22;26682;51.660;19.338;2023-04-15T06:06:34;9.50;99.90
40952;DHT22;26682;51.660;19.338;2023-04-15T06:09:17;9.60;99.90
40952;DHT22;26682;51.660;19.338;2023-04-15T06:11:59;9.60;99.90
40952;DHT22;26682;51.660;19.338;2023-04-15T06:14:43;9.60;99.90
40952;DHT22;26682;51.660;19.338;2023-04-15T06:17:25;9.70;99.90
40952;DHT22;26682;51.660;19.338;2023-04-15T06:20:08;9.60;99.90
40952;DHT22;26682;51.660;19.338;2023-04-15T06:22:54;9.70;99.90
40952;DHT22;26682;51.660;19.338;2023-04-15T06:25:37;9.70;99.90
40952;DHT22;26682;51.660;19.338;2023-04-15T06:28:21;9.70;99.90
40952;DHT22;26682;51.660;19.338;2023-04-15T06:31:06;9.70;99.90
40952;DHT22;26682;51.660;19.338;2023-04-15T06:33:52;9.70;99.90
40952;DHT22;26682;51.660;19.338;2023-04-15T06:36:35;9.70;99.90
40952;DHT22;26682;51.660;19.338;2023-04-15T06:39:17;9.70;99.90
40952;DHT22;26682;51.660;19.338;2023-04-15T06:42:00;9.70;99.90
40952;DHT22;26682;51.660;19.338;2023-04-15T06:44:45;9.60;99.90
40952;DHT22;26682;51.660;19.338;2023-04-15T06:47:35;9.70;99.90
40952;DHT22;26682;51.660;19.338;2023-04-15T06:50:18;9.60;99.90
40952;DHT22;26682;51.660;19.338;2023-04-15T06:53:00;9.60;99.90
40952;DHT22;26682;51.660;19.338;2023-04-15T06:55:43;9.50;99.90
40952;DHT22;26682;51.660;19.338;2023-04-15T06:58:26;9.50;99.90
40952;DHT22;26682;51.660;19.338;2023-04-15T07:01:08;9.60;99.90
40952;DHT22;26682;51.660;19.338;2023-04-15T07:03:51;9.60;99.90
40952;DHT22;26682;51.660;19.338;2023-04-15T07:06:33;9.50;99.90
40952;DHT22;26682;51.660;19.338;2023-04-15T07:09:17;9.60;99.90
40952;DHT22;26682;51.660;19.338;2023-04-15T07:11:59;9.60;99.90
40952;DHT22;26682;51.660;19.338;2023-04-15T07:14:42;9.60;99.90
40952;DHT22;26682;51.660;19.338;2023-04-15T07:17:24;9.70;99.90
40952;DHT22;26682;51.660;19.338;2023-04-15T07:20:07;9.60;99.90
40952;DHT22;26682;51.660;19.338;2023-04-15T07:22:50;9.60;99.90
40952;DHT22;26682;51.660;19.338;2023-04-15T07:25:32;9.60;99.90
40952;DHT22;26682;51.660;19.338;2023-04-15T07:28:14;9.60;99.90
40952;DHT22;26682;51.660;19.338;2023-04-15T07:30:57;9.60;99.90
40952;DHT22;26682;51.660;19.338;2023-04-15T07:33:40;9.60;99.90
40952;DHT22;26682;51.660;19.338;2023-04-15T07:36:23;9.60;99.90
40952;DHT22;26682;51.660;19.338;2023-04-15T07:39:05;9.70;99.90
40952;DHT22;26682;51.660;19.338;2023-04-15T07:41:48;9.70;99.90
40952;DHT22;26682;51.660;19.338;2023-04-15T07:44:31;9.80;99.90
40952;DHT22;26682;51.660;19.338;2023-04-15T07:47:14;9.80;99.90
40952;DHT22;26682;51.660;19.338;2023-04-15T07:49:56;9.90;99.90
40952;DHT22;26682;51.660;19.338;2023-04-15T07:52:40;10.00;99.90
40952;DHT22;26682;51.660;19.338;2023-04-15T07:55:22;10.00;99.90
40952;DHT22;26682;51.660;19.338;2023-04-15T07:58:09;10.00;99.90
40952;DHT22;26682;51.660;19.338;2023-04-15T08:00:52;10.00;99.90
40952;DHT22;26682;51.660;19.338;2023-04-15T08:03:39;9.90;99.90
40952;DHT22;26682;51.660;19.338;2023-04-15T08:06:23;10.10;99.90
40952;DHT22;26682;51.660;19.338;2023-04-15T08:09:06;10.20;99.90
40952;DHT22;26682;51.660;19.338;2023-04-15T08:11:49;10.20;99.90
40952;DHT22;26682;51.660;19.338;2023-04-15T08:14:34;10.10;99.90
40952;DHT22;26682;51.660;19.338;2023-04-15T08:17:17;10.10;99.90
40952;DHT22;26682;51.660;19.338;2023-04-15T08:19:59;10.30;99.90
40952;DHT22;26682;51.660;19.338;2023-04-15T08:22:42;10.30;99.90
40952;DHT22;26682;51.660;19.338;2023-04-15T08:25:25;10.40;99.90
40952;DHT22;26682;51.660;19.338;2023-04-15T08:28:08;10.40;99.90
40952;DHT22;26682;51.660;19.338;2023-04-15T08:30:52;10.40;99.90
40952;DHT22;26682;51.660;19.338;2023-04-15T08:33:34;10.60;99.90
40952;DHT22;26682;51.660;19.338;2023-04-15T08:36:17;10.80;99.90
40952;DHT22;26682;51.660;19.338;2023-04-15T08:38:59;10.90;99.90
40952;DHT22;26682;51.660;19.338;2023-04-15T08:42:00;10.80;99.90
40952;DHT22;26682;51.660;19.338;2023-04-15T08:44:48;10.70;99.90
40952;DHT22;26682;51.660;19.338;2023-04-15T08:47:32;10.80;99.90
40952;DHT22;26682;51.660;19.338;2023-04-15T08:50:15;10.70;99.90
40952;DHT22;26682;51.660;19.338;2023-04-15T08:52:59;10.60;99.90
40952;DHT22;26682;51.660;19.338;2023-04-15T08:55:43;10.50;99.90
40952;DHT22;26682;51.660;19.338;2023-04-15T08:58:27;10.60;99.90
40952;DHT22;26682;51.660;19.338;2023-04-15T09:01:11;10.50;99.90
40952;DHT22;26682;51.660;19.338;2023-04-15T09:03:55;10.50;99.90
40952;DHT22;26682;51.660;19.338;2023-04-15T09:06:39;10.50;99.90
40952;DHT22;26682;51.660;19.338;2023-04-15T09:09:22;10.60;99.90
40952;DHT22;26682;51.660;19.338;2023-04-15T09:12:05;10.60;99.90
40952;DHT22;26682;51.660;19.338;2023-04-15T09:14:48;10.70;99.90
40952;DHT22;26682;51.660;19.338;2023-04-15T09:17:32;10.70;99.90
40952;DHT22;26682;51.660;19.338;2023-04-15T09:20:16;10.80;99.90
40952;DHT22;26682;51.660;19.338;2023-04-15T09:23:11;10.90;99.90
40952;DHT22;26682;51.660;19.338;2023-04-15T09:25:56;10.90;99.90
40952;DHT22;26682;51.660;19.338;2023-04-15T09:28:42;11.00;99.90
40952;DHT22;26682;51.660;19.338;2023-04-15T09:31:29;11.10;99.90
40952;DHT22;26682;51.660;19.338;2023-04-15T09:34:12;11.10;99.90
40952;DHT22;26682;51.660;19.338;2023-04-15T09:36:55;11.30;99.90
40952;DHT22;26682;51.660;19.338;2023-04-15T09:39:45;11.40;99.90
40952;DHT22;26682;51.660;19.338;2023-04-15T09:42:29;11.60;99.90
40952;DHT22;26682;51.660;19.338;2023-04-15T09:45:13;11.60;99.90
40952;DHT22;26682;51.660;19.338;2023-04-15T09:48:15;11.70;99.90
40952;DHT22;26682;51.660;19.338;2023-04-15T09:50:58;11.70;99.90
40952;DHT22;26682;51.660;19.338;2023-04-15T09:53:41;11.60;99.90
40952;DHT22;26682;51.660;19.338;2023-04-15T09:56:33;11.60;99.90
40952;DHT22;26682;51.660;19.338;2023-04-15T09:59:17;11.60;99.90
40952;DHT22;26682;51.660;19.338;2023-04-15T10:02:03;11.80;99.90
40952;DHT22;26682;51.660;19.338;2023-04-15T10:04:47;12.00;99.90
40952;DHT22;26682;51.660;19.338;2023-04-15T10:07:31;11.90;99.90
40952;DHT22;26682;51.660;19.338;2023-04-15T10:10:14;12.10;99.90
40952;DHT22;26682;51.660;19.338;2023-04-15T10:12:57;12.10;77.70
40952;DHT22;26682;51.660;19.338;2023-04-15T10:15:43;12.00;33.20
40952;DHT22;26682;51.660;19.338;2023-04-15T10:18:27;12.00;69.60
40952;DHT22;26682;51.660;19.338;2023-04-15T10:21:12;11.90;9.90
40952;DHT22;26682;51.660;19.338;2023-04-15T10:23:57;11.90;1.00
40952;DHT22;26682;51.660;19.338;2023-04-15T10:26:40;11.80;1.00
40952;DHT22;26682;51.660;19.338;2023-04-15T10:29:24;11.80;99.90
40952;DHT22;26682;51.660;19.338;2023-04-15T10:32:08;11.80;1.00
40952;DHT22;26682;51.660;19.338;2023-04-15T10:34:53;11.80;99.90
40952;DHT22;26682;51.660;19.338;2023-04-15T10:37:37;12.00;1.00
40952;DHT22;26682;51.660;19.338;2023-04-15T10:40:30;11.60;99.90
40952;DHT22;26682;51.660;19.338;2023-04-15T10:43:24;11.20;1.00
40952;DHT22;26682;51.660;19.338;2023-04-15T10:46:06;10.90;1.00
40952;DHT22;26682;51.660;19.338;2023-04-15T10:48:50;10.50;1.00
40952;DHT22;26682;51.660;19.338;2023-04-15T10:51:37;10.20;7.90
40952;DHT22;26682;51.660;19.338;2023-04-15T11:08:53;9.60;99.90
40952;DHT22;26682;51.660;19.338;2023-04-15T11:12:06;9.60;99.90
40952;DHT22;26682;51.660;19.338;2023-04-15T11:14:52;9.50;99.90
40952;DHT22;26682;51.660;19.338;2023-04-15T11:17:36;9.60;99.90
40952;DHT22;26682;51.660;19.338;2023-04-15T11:20:18;9.50;99.90
40952;DHT22;26682;51.660;19.338;2023-04-15T11:23:01;9.40;99.90
40952;DHT22;26682;51.660;19.338;2023-04-15T11:25:56;9.40;99.90
40952;DHT22;26682;51.660;19.338;2023-04-15T11:28:41;9.30;99.90
40952;DHT22;26682;51.660;19.338;2023-04-15T11:31:27;9.40;99.90
40952;DHT22;26682;51.660;19.338;2023-04-15T11:34:10;9.20;99.90
40952;DHT22;26682;51.660;19.338;2023-04-15T11:36:57;9.20;99.90
40952;DHT22;26682;51.660;19.338;2023-04-15T11:39:40;9.20;99.90
40952;DHT22;26682;51.660;19.338;2023-04-15T11:42:23;9.20;99.90
40952;DHT22;26682;51.660;19.338;2023-04-15T11:45:14;9.20;99.90
40952;DHT22;26682;51.660;19.338;2023-04-15T11:48:14;9.30;99.90
40952;DHT22;26682;51.660;19.338;2023-04-15T11:51:02;9.40;99.90
40952;DHT22;26682;51.660;19.338;2023-04-15T11:53:49;9.40;99.90
40952;DHT22;26682;51.660;19.338;2023-04-15T11:56:35;9.40;99.90
40952;DHT22;26682;51.660;19.338;2023-04-15T11:59:18;9.30;99.90
40952;DHT22;26682;51.660;19.338;2023-04-15T12:02:11;9.40;99.90
40952;DHT22;26682;51.660;19.338;2023-04-15T12:05:02;9.40;99.90
40952;DHT22;26682;51.660;19.338;2023-04-15T12:08:06;9.50;79.30
40952;DHT22;26682;51.660;19.338;2023-04-15T12:10:49;9.40;1.00
40952;DHT22;26682;51.660;19.338;2023-04-15T12:13:31;9.40;1.00
40952;DHT22;26682;51.660;19.338;2023-04-15T12:16:19;9.40;23.50
40952;DHT22;26682;51.660;19.338;2023-04-15T12:19:06;9.30;1.00
40952;DHT22;26682;51.660;19.338;2023-04-15T12:21:49;9.30;1.00
40952;DHT22;26682;51.660;19.338;2023-04-15T12:24:33;9.30;1.00
40952;DHT22;26682;51.660;19.338;2023-04-15T12:27:16;9.30;36.30
40952;DHT22;26682;51.660;19.338;2023-04-15T12:30:03;9.40;20.40
40952;DHT22;26682;51.660;19.338;2023-04-15T12:32:46;9.40;39.10
40952;DHT22;26682;51.660;19.338;2023-04-15T12:35:30;9.60;99.90
40952;DHT22;26682;51.660;19.338;2023-04-15T12:38:12;9.60;99.90
40952;DHT22;26682;51.660;19.338;2023-04-15T12:40:57;9.50;37.60
40952;DHT22;26682;51.660;19.338;2023-04-15T12:43:40;9.60;99.90
40952;DHT22;26682;51.660;19.338;2023-04-15T12:46:23;9.60;21.90
40952;DHT22;26682;51.660;19.338;2023-04-15T12:49:06;9.50;72.90
40952;DHT22;26682;51.660;19.338;2023-04-15T12:51:50;9.50;1.00
40952;DHT22;26682;51.660;19.338;2023-04-15T12:54:33;9.50;99.90
40952;DHT22;26682;51.660;19.338;2023-04-15T12:57:17;9.60;99.90
40952;DHT22;26682;51.660;19.338;2023-04-15T12:59:59;9.50;99.90
40952;DHT22;26682;51.660;19.338;2023-04-15T13:02:43;9.60;99.90
40952;DHT22;26682;51.660;19.338;2023-04-15T13:05:25;9.60;99.90
40952;DHT22;26682;51.660;19.338;2023-04-15T13:08:08;9.70;99.90
40952;DHT22;26682;51.660;19.338;2023-04-15T13:10:50;9.80;99.90
40952;DHT22;26682;51.660;19.338;2023-04-15T13:13:33;9.90;99.90
40952;DHT22;26682;51.660;19.338;2023-04-15T13:16:15;10.10;97.30
40952;DHT22;26682;51.660;19.338;2023-04-15T13:18:59;10.20;32.00
40952;DHT22;26682;51.660;19.338;2023-04-15T13:21:42;10.30;1.00
40952;DHT22;26682;51.660;19.338;2023-04-15T13:24:25;10.10;99.90
40952;DHT22;26682;51.660;19.338;2023-04-15T13:27:07;10.10;1.00
40952;DHT22;26682;51.660;19.338;2023-04-15T13:29:50;10.00;1.00
40952;DHT22;26682;51.660;19.338;2023-04-15T13:32:32;10.10;59.60
40952;DHT22;26682;51.660;19.338;2023-04-15T13:35:14;10.00;7.60
40952;DHT22;26682;51.660;19.338;2023-04-15T13:37:57;9.90;89.10
40952;DHT22;26682;51.660;19.338;2023-04-15T13:40:39;9.80;87.20
40952;DHT22;26682;51.660;19.338;2023-04-15T13:43:22;9.90;99.90
40952;DHT22;26682;51.660;19.338;2023-04-15T13:46:04;10.00;99.90
40952;DHT22;26682;51.660;19.338;2023-04-15T13:48:47;10.00;99.90
40952;DHT22;26682;51.660;19.338;2023-04-15T13:51:29;10.00;99.90
40952;DHT22;26682;51.660;19.338;2023-04-15T13:54:12;9.90;1.00
40952;DHT22;26682;51.660;19.338;2023-04-15T13:56:55;9.90;1.00
40952;DHT22;26682;51.660;19.338;2023-04-15T13:59:38;9.90;1.00
40952;DHT22;26682;51.660;19.338;2023-04-15T14:02:21;9.80;1.00
40952;DHT22;26682;51.660;19.338;2023-04-15T14:05:04;9.80;27.80
40952;DHT22;26682;51.660;19.338;2023-04-15T14:07:47;9.80;54.40
40952;DHT22;26682;51.660;19.338;2023-04-15T14:10:29;9.90;99.90
40952;DHT22;26682;51.660;19.338;2023-04-15T14:13:12;9.90;99.90
40952;DHT22;26682;51.660;19.338;2023-04-15T14:15:56;9.90;99.90
40952;DHT22;26682;51.660;19.338;2023-04-15T14:18:39;9.90;99.90
40952;DHT22;26682;51.660;19.338;2023-04-15T14:21:21;9.90;99.90
40952;DHT22;26682;51.660;19.338;2023-04-15T14:24:04;9.90;99.90
40952;DHT22;26682;51.660;19.338;2023-04-15T14:26:47;9.90;99.90
40952;DHT22;26682;51.660;19.338;2023-04-15T14:29:29;9.90;99.90
40952;DHT22;26682;51.660;19.338;2023-04-15T14:32:12;10.00;99.90
40952;DHT22;26682;51.660;19.338;2023-04-15T14:34:57;10.10;99.90
40952;DHT22;26682;51.660;19.338;2023-04-15T14:37:39;10.00;68.00
40952;DHT22;26682;51.660;19.338;2023-04-15T14:40:22;10.10;99.90
40952;DHT22;26682;51.660;19.338;2023-04-15T14:43:04;10.00;99.90
40952;DHT22;26682;51.660;19.338;2023-04-15T14:45:47;9.90;10.00
40952;DHT22;26682;51.660;19.338;2023-04-15T14:48:30;10.00;39.50
40952;DHT22;26682;51.660;19.338;2023-04-15T14:51:13;10.10;26.50
40952;DHT22;26682;51.660;19.338;2023-04-15T14:53:55;10.10;1.00
40952;DHT22;26682;51.660;19.338;2023-04-15T14:56:38;10.20;93.30
40952;DHT22;26682;51.660;19.338;2023-04-15T14:59:20;10.20;52.20
40952;DHT22;26682;51.660;19.338;2023-04-15T15:02:03;10.30;99.90
40952;DHT22;26682;51.660;19.338;2023-04-15T15:04:45;10.30;99.90
40952;DHT22;26682;51.660;19.338;2023-04-15T15:07:28;10.30;35.80
40952;DHT22;26682;51.660;19.338;2023-04-15T15:10:10;10.30;10.70
40952;DHT22;26682;51.660;19.338;2023-04-15T15:12:54;10.30;1.00
40952;DHT22;26682;51.660;19.338;2023-04-15T15:15:37;10.30;1.00
40952;DHT22;26682;51.660;19.338;2023-04-15T15:18:20;10.30;1.00
40952;DHT22;26682;51.660;19.338;2023-04-15T15:21:02;10.40;93.40
40952;DHT22;26682;51.660;19.338;2023-04-15T15:23:45;10.40;53.50
40952;DHT22;26682;51.660;19.338;2023-04-15T15:26:29;10.40;47.90
40952;DHT22;26682;51.660;19.338;2023-04-15T15:29:11;10.50;93.90
40952;DHT22;26682;51.660;19.338;2023-04-15T15:31:54;10.50;16.40
40952;DHT22;26682;51.660;19.338;2023-04-15T15:34:36;10.50;1.00
40952;DHT22;26682;51.660;19.338;2023-04-15T15:37:19;10.40;1.00
40952;DHT22;26682;51.660;19.338;2023-04-15T15:40:05;10.40;41.30
40952;DHT22;26682;51.660;19.338;2023-04-15T15:42:48;10.40;75.60
40952;DHT22;26682;51.660;19.338;2023-04-15T15:45:32;10.50;99.90
40952;DHT22;26682;51.660;19.338;2023-04-15T15:48:15;10.50;99.90
40952;DHT22;26682;51.660;19.338;2023-04-15T15:50:57;10.40;99.90
40952;DHT22;26682;51.660;19.338;2023-04-15T15:53:40;10.30;99.90
40952;DHT22;26682;51.660;19.338;2023-04-15T15:56:23;10.30;99.90
40952;DHT22;26682;51.660;19.338;2023-04-15T15:59:05;10.30;99.90
40952;DHT22;26682;51.660;19.338;2023-04-15T16:01:48;10.30;99.90
40952;DHT22;26682;51.660;19.338;2023-04-15T16:04:31;10.30;99.90
40952;DHT22;26682;51.660;19.338;2023-04-15T16:07:14;10.20;99.90
40952;DHT22;26682;51.660;19.338;2023-04-15T16:09:56;10.20;99.90
40952;DHT22;26682;51.660;19.338;2023-04-15T16:12:39;10.20;99.90
40952;DHT22;26682;51.660;19.338;2023-04-15T16:15:24;10.20;99.90
40952;DHT22;26682;51.660;19.338;2023-04-15T16:18:08;10.20;99.90
40952;DHT22;26682;51.660;19.338;2023-04-15T16:20:50;10.30;99.90
40952;DHT22;26682;51.660;19.338;2023-04-15T16:23:32;10.30;99.90
40952;DHT22;26682;51.660;19.338;2023-04-15T16:26:15;10.30;99.90
40952;DHT22;26682;51.660;19.338;2023-04-15T16:28:58;10.30;99.90
40952;DHT22;26682;51.660;19.338;2023-04-15T16:31:41;10.30;99.90
40952;DHT22;26682;51.660;19.338;2023-04-15T16:34:24;10.10;1.00
40952;DHT22;26682;51.660;19.338;2023-04-15T16:37:06;10.10;99.90
40952;DHT22;26682;51.660;19.338;2023-04-15T16:39:48;10.20;1.00
40952;DHT22;26682;51.660;19.338;2023-04-15T16:42:31;10.20;1.00
40952;DHT22;26682;51.660;19.338;2023-04-15T16:45:14;10.20;1.00
40952;DHT22;26682;51.660;19.338;2023-04-15T16:47:56;10.20;1.00
40952;DHT22;26682;51.660;19.338;2023-04-15T16:50:39;10.10;99.90
40952;DHT22;26682;51.660;19.338;2023-04-15T16:53:21;10.10;1.00
40952;DHT22;26682;51.660;19.338;2023-04-15T16:56:05;10.00;99.90
40952;DHT22;26682;51.660;19.338;2023-04-15T16:58:48;10.00;99.90
40952;DHT22;26682;51.660;19.338;2023-04-15T17:01:30;10.00;99.90
40952;DHT22;26682;51.660;19.338;2023-04-15T17:04:13;10.00;99.90
40952;DHT22;26682;51.660;19.338;2023-04-15T17:06:56;10.00;99.90
40952;DHT22;26682;51.660;19.338;2023-04-15T17:09:39;10.00;99.90
40952;DHT22;26682;51.660;19.338;2023-04-15T17:12:22;10.00;99.90
40952;DHT22;26682;51.660;19.338;2023-04-15T17:15:05;9.90;99.90
40952;DHT22;26682;51.660;19.338;2023-04-15T17:17:48;10.00;99.90
40952;DHT22;26682;51.660;19.338;2023-04-15T17:20:31;10.00;99.90
40952;DHT22;26682;51.660;19.338;2023-04-15T17:23:13;10.00;99.90
40952;DHT22;26682;51.660;19.338;2023-04-15T17:25:55;10.00;99.90